createdAt,value
2018-06-21T00:00:45.437Z,24.82
2018-06-21T00:01:55.521Z,24.8
2018-06-21T00:03:05.820Z,24.71
2018-06-21T00:04:15.902Z,24.71
2018-06-21T00:05:25.963Z,24.78
2018-06-21T00:06:36.031Z,24.64
2018-06-21T00:07:46.121Z,24.67
2018-06-21T00:08:56.209Z,24.56
2018-06-21T00:10:06.275Z,24.55
2018-06-21T00:11:16.352Z,24.52
2018-06-21T00:12:26.444Z,24.48
2018-06-21T00:13:36.525Z,24.46
2018-06-21T00:14:46.584Z,24.45
2018-06-21T00:15:56.398Z,24.36
2018-06-21T00:17:06.222Z,24.36
2018-06-21T00:18:16.296Z,24.34
2018-06-21T00:19:26.444Z,24.33
2018-06-21T00:20:36.525Z,24.36
2018-06-21T00:21:46.600Z,24.3
2018-06-21T00:22:56.682Z,24.39
2018-06-21T00:24:06.772Z,24.24
2018-06-21T00:25:16.867Z,24.24
2018-06-21T00:26:26.956Z,24.26
2018-06-21T00:27:37.023Z,24.18
2018-06-21T00:28:46.837Z,24.26
2018-06-21T00:29:56.932Z,24.18
2018-06-21T00:31:06.751Z,24.19
2018-06-21T00:32:16.561Z,24.15
2018-06-21T00:33:26.628Z,24.17
2018-06-21T00:34:36.725Z,24.11
2018-06-21T00:35:46.529Z,24.03
2018-06-21T00:36:56.349Z,24
2018-06-21T00:38:06.191Z,24.03
2018-06-21T00:39:16.023Z,24.08
2018-06-21T00:40:25.850Z,23.93
2018-06-21T00:41:35.920Z,23.97
2018-06-21T00:42:45.994Z,23.93
2018-06-21T00:43:56.053Z,23.89
2018-06-21T00:45:05.873Z,23.92
2018-06-21T00:46:15.953Z,23.84
2018-06-21T00:47:26.025Z,23.87
2018-06-21T00:48:35.842Z,23.85
2018-06-21T00:49:45.920Z,23.84
2018-06-21T00:50:55.986Z,23.84
2018-06-21T00:52:05.790Z,23.78
2018-06-21T00:53:15.864Z,23.77
2018-06-21T00:54:25.694Z,23.78
2018-06-21T00:55:35.756Z,23.72
2018-06-21T00:56:45.833Z,23.81
2018-06-21T00:57:55.903Z,23.77
2018-06-21T00:59:05.974Z,23.7
2018-06-21T01:00:16.058Z,23.75
2018-06-21T01:01:25.866Z,23.66
2018-06-21T01:02:35.968Z,23.7
2018-06-21T01:03:46.052Z,23.64
2018-06-21T01:04:56.136Z,23.66
2018-06-21T01:06:06.210Z,23.62
2018-06-21T01:07:16.307Z,23.63
2018-06-21T01:08:26.386Z,23.66
2018-06-21T01:09:36.457Z,23.6
2018-06-21T01:10:46.593Z,23.57
2018-06-21T01:11:56.419Z,23.63
2018-06-21T01:13:06.275Z,23.55
2018-06-21T01:14:16.342Z,23.62
2018-06-21T01:15:26.432Z,23.57
2018-06-21T01:16:36.250Z,23.47
2018-06-21T01:17:46.123Z,23.55
2018-06-21T01:18:55.933Z,23.57
2018-06-21T01:20:06.007Z,23.57
2018-06-21T01:21:16.101Z,23.45
2018-06-21T01:22:25.915Z,23.5
2018-06-21T01:23:35.981Z,23.44
2018-06-21T01:24:46.059Z,23.45
2018-06-21T01:25:56.133Z,23.45
2018-06-21T01:27:06.219Z,23.35
2018-06-21T01:28:16.294Z,23.4
2018-06-21T01:29:26.115Z,23.35
2018-06-21T01:30:36.191Z,23.4
2018-06-21T01:31:46.273Z,23.4
2018-06-21T01:32:56.366Z,23.26
2018-06-21T01:34:06.442Z,23.32
2018-06-21T01:35:16.517Z,23.38
2018-06-21T01:36:26.319Z,23.22
2018-06-21T01:37:36.391Z,23.28
2018-06-21T01:38:46.480Z,23.26
2018-06-21T01:39:56.019Z,23.19
2018-06-21T01:41:06.149Z,23.15
2018-06-21T01:42:16.239Z,23.24
2018-06-21T01:43:26.066Z,23.18
2018-06-21T01:44:36.186Z,23.12
2018-06-21T01:45:45.991Z,23.1
2018-06-21T01:46:56.113Z,23.12
2018-06-21T01:48:05.925Z,23.07
2018-06-21T01:49:16.009Z,23.07
2018-06-21T01:50:26.075Z,23.07
2018-06-21T01:51:36.145Z,23.09
2018-06-21T01:52:46.227Z,23.03
2018-06-21T01:53:56.050Z,23
2018-06-21T01:55:06.127Z,23
2018-06-21T01:56:16.202Z,23
2018-06-21T01:57:26.014Z,22.99
2018-06-21T01:58:36.108Z,23
2018-06-21T01:59:46.182Z,22.88
2018-06-21T02:00:56.258Z,22.92
2018-06-21T02:02:06.329Z,22.86
2018-06-21T02:03:16.402Z,22.89
2018-06-21T02:04:26.500Z,22.89
2018-06-21T02:05:36.594Z,22.88
2018-06-21T02:06:46.679Z,22.82
2018-06-21T02:07:56.801Z,22.85
2018-06-21T02:09:06.639Z,22.89
2018-06-21T02:10:16.730Z,22.88
2018-06-21T02:11:26.803Z,22.89
2018-06-21T02:12:36.611Z,22.91
2018-06-21T02:13:46.706Z,22.82
2018-06-21T02:14:56.780Z,22.79
2018-06-21T02:16:06.913Z,22.85
2018-06-21T02:17:16.991Z,22.79
2018-06-21T02:18:27.060Z,22.84
2018-06-21T02:19:36.892Z,22.79
2018-06-21T02:20:46.714Z,22.73
2018-06-21T02:21:56.806Z,22.75
2018-06-21T02:23:06.880Z,22.78
2018-06-21T02:24:16.687Z,22.69
2018-06-21T02:25:26.551Z,22.73
2018-06-21T02:26:36.626Z,22.66
2018-06-21T02:27:46.749Z,22.59
2018-06-21T02:28:56.572Z,22.7
2018-06-21T02:30:06.400Z,22.67
2018-06-21T02:31:16.505Z,22.7
2018-06-21T02:32:26.581Z,22.67
2018-06-21T02:33:36.149Z,22.7
2018-06-21T02:34:46.231Z,22.69
2018-06-21T02:35:56.323Z,22.67
2018-06-21T02:37:06.424Z,22.54
2018-06-21T02:38:16.513Z,22.66
2018-06-21T02:39:26.599Z,22.66
2018-06-21T02:40:36.428Z,22.63
2018-06-21T02:41:46.239Z,22.63
2018-06-21T02:42:56.313Z,22.63
2018-06-21T02:44:06.406Z,22.67
2018-06-21T02:45:16.524Z,22.6
2018-06-21T02:46:26.592Z,22.57
2018-06-21T02:47:36.679Z,22.55
2018-06-21T02:48:46.745Z,22.54
2018-06-21T02:49:56.826Z,22.59
2018-06-21T02:51:06.894Z,22.57
2018-06-21T02:52:16.699Z,22.51
2018-06-21T02:53:26.783Z,22.51
2018-06-21T02:54:36.353Z,22.52
2018-06-21T02:55:46.415Z,22.52
2018-06-21T02:56:56.232Z,22.49
2018-06-21T02:58:06.035Z,22.51
2018-06-21T02:59:16.122Z,22.51
2018-06-21T03:00:26.202Z,22.51
2018-06-21T03:01:36.274Z,22.54
2018-06-21T03:02:46.133Z,22.45
2018-06-21T03:34:47.859Z,20.88
2018-06-21T03:35:57.920Z,20.79
2018-06-21T03:37:07.729Z,20.82
2018-06-21T03:38:17.794Z,20.88
2018-06-21T03:39:27.603Z,20.78
2018-06-21T03:40:37.668Z,20.82
2018-06-21T03:41:47.240Z,20.86
2018-06-21T03:42:57.342Z,20.93
2018-06-21T03:44:07.432Z,21.09
2018-06-21T03:45:17.232Z,21.18
2018-06-21T03:46:27.307Z,21.22
2018-06-21T03:47:37.387Z,21.43
2018-06-21T03:48:47.451Z,21.51
2018-06-21T03:49:57.518Z,21.59
2018-06-21T03:51:07.085Z,21.83
2018-06-21T03:52:17.386Z,22
2018-06-21T03:53:27.357Z,22.27
2018-06-21T03:54:37.424Z,22.42
2018-06-21T03:55:47.489Z,22.48
2018-06-21T03:56:57.557Z,22.51
2018-06-21T03:58:07.356Z,22.54
2018-06-21T03:59:17.435Z,22.64
2018-06-21T04:00:27.520Z,22.69
2018-06-21T04:01:37.072Z,22.71
2018-06-21T04:02:47.141Z,22.75
2018-06-21T04:03:57.221Z,22.76
2018-06-21T04:05:07.319Z,22.88
2018-06-21T04:06:17.151Z,23.01
2018-06-21T04:07:27.278Z,22.99
2018-06-21T04:08:37.105Z,23.07
2018-06-21T04:09:47.233Z,23.12
2018-06-21T04:10:57.318Z,23.19
2018-06-21T04:12:07.121Z,23.26
2018-06-21T04:13:16.653Z,23.4
2018-06-21T04:14:26.775Z,23.52
2018-06-21T04:15:36.848Z,23.57
2018-06-21T04:16:46.932Z,23.6
2018-06-21T04:17:57.023Z,23.62
2018-06-21T04:19:06.835Z,24.46
2018-06-21T04:20:16.643Z,26.39
2018-06-21T04:21:27.764Z,28.35
2018-06-21T04:22:37.845Z,29.79
2018-06-21T04:23:47.911Z,30.89
2018-06-21T04:24:57.986Z,31.98
2018-06-21T04:26:07.803Z,32.71
2018-06-21T04:27:17.616Z,33.55
2018-06-21T04:28:27.690Z,34.11
2018-06-21T04:29:37.769Z,34.63
2018-06-21T04:30:47.839Z,35.18
2018-06-21T04:31:57.677Z,35.46
2018-06-21T04:33:07.794Z,35.94
2018-06-21T04:34:17.883Z,36.33
2018-06-21T04:35:27.952Z,36.62
2018-06-21T04:36:38.038Z,36.93
2018-06-21T04:37:48.199Z,37.26
2018-06-21T04:38:58.334Z,37.49
2018-06-21T04:40:08.416Z,37.83
2018-06-21T04:41:18.522Z,38.03
2018-06-21T04:42:28.604Z,38.35
2018-06-21T04:43:38.676Z,38.56
2018-06-21T04:44:48.758Z,38.73
2018-06-21T04:45:59.046Z,38.81
2018-06-21T04:47:09.120Z,39.04
2018-06-21T04:48:19.201Z,39.15
2018-06-21T04:49:28.760Z,39.25
2018-06-21T04:50:38.853Z,39.25
2018-06-21T04:51:48.958Z,39.38
2018-06-21T04:52:58.511Z,39.42
2018-06-21T04:54:08.598Z,39.57
2018-06-21T04:55:18.699Z,39.68
2018-06-21T04:56:28.255Z,39.76
2018-06-21T04:57:38.352Z,39.74
2018-06-21T04:58:48.167Z,39.71
2018-06-21T04:59:58.279Z,39.81
2018-06-21T05:01:08.186Z,39.93
2018-06-21T05:02:17.795Z,39.99
2018-06-21T05:03:27.874Z,40.06
2018-06-21T05:04:37.696Z,40.1
2018-06-21T05:05:47.765Z,40.27
2018-06-21T05:06:57.584Z,40.38
2018-06-21T05:08:07.723Z,40.44
2018-06-21T05:09:17.815Z,40.51
2018-06-21T05:10:27.872Z,40.43
2018-06-21T05:11:37.961Z,40.44
2018-06-21T05:12:48.039Z,40.41
2018-06-21T05:13:57.599Z,40.32
2018-06-21T05:15:07.704Z,40.38
2018-06-21T05:16:17.799Z,40.4
2018-06-21T05:17:27.885Z,40.47
2018-06-21T05:18:37.981Z,40.43
2018-06-21T05:19:48.064Z,40.36
2018-06-21T05:20:58.141Z,40.3
2018-06-21T05:22:07.964Z,40.24
2018-06-21T05:23:18.079Z,40.31
2018-06-21T05:24:28.171Z,40.36
2018-06-21T05:25:38.308Z,40.4
2018-06-21T05:26:48.456Z,40.41
2018-06-21T05:27:58.275Z,40.48
2018-06-21T05:29:08.366Z,40.4
2018-06-21T05:30:18.435Z,40.36
2018-06-21T05:31:28.600Z,40.4
2018-06-21T05:32:38.733Z,40.28
2018-06-21T05:33:48.808Z,40.36
2018-06-21T05:34:58.892Z,40.38
2018-06-21T05:36:08.973Z,40.4
2018-06-21T05:37:19.052Z,40.5
2018-06-21T05:38:29.240Z,40.52
2018-06-21T05:39:39.339Z,40.41
2018-06-21T05:40:49.416Z,40.28
2018-06-21T05:41:59.497Z,40.36
2018-06-21T05:43:09.628Z,40.47
2018-06-21T05:44:19.775Z,40.3
2018-06-21T05:45:30.038Z,40.47
2018-06-21T05:46:39.617Z,40.48
2018-06-21T05:47:49.702Z,40.65
2018-06-21T05:48:59.841Z,40.6
2018-06-21T05:50:09.965Z,40.65
2018-06-21T05:51:20.164Z,40.67
2018-06-21T05:52:29.993Z,40.6
2018-06-21T05:53:39.831Z,40.57
2018-06-21T05:54:49.982Z,40.5
2018-06-21T05:56:00.072Z,40.45
2018-06-21T05:57:09.651Z,40.32
2018-06-21T05:58:19.775Z,40.08
2018-06-21T05:59:29.848Z,40.01
2018-06-21T06:00:39.944Z,39.76
2018-06-21T06:01:49.765Z,39.65
2018-06-21T06:02:59.689Z,39.46
2018-06-21T06:04:09.777Z,39.42
2018-06-21T06:05:19.858Z,39.38
2018-06-21T06:06:29.943Z,39.35
2018-06-21T06:07:39.771Z,39.27
2018-06-21T06:08:49.588Z,39.22
2018-06-21T06:09:59.736Z,39.22
2018-06-21T06:11:09.596Z,39.25
2018-06-21T06:12:19.755Z,39.19
2018-06-21T06:13:29.835Z,39.15
2018-06-21T06:14:39.931Z,39.08
2018-06-21T06:15:50.002Z,38.89
2018-06-21T06:17:00.092Z,38.77
2018-06-21T06:18:10.165Z,38.59
2018-06-21T06:19:20.260Z,38.52
2018-06-21T06:20:30.330Z,38.54
2018-06-21T06:21:40.415Z,38.35
2018-06-21T06:22:50.503Z,38.21
2018-06-21T06:24:00.384Z,37.99
2018-06-21T06:25:09.679Z,37.83
2018-06-21T06:26:19.782Z,37.69
2018-06-21T06:27:29.865Z,37.46
2018-06-21T06:28:39.841Z,37.45
2018-06-21T06:29:49.759Z,37.3
2018-06-21T06:30:59.846Z,37.26
2018-06-21T06:32:09.934Z,37.22
2018-06-21T06:33:20.014Z,37.17
2018-06-21T06:34:30.124Z,37.05
2018-06-21T06:35:40.257Z,37.09
2018-06-21T06:36:50.341Z,36.96
2018-06-21T06:38:00.166Z,36.81
2018-06-21T06:39:10.263Z,36.75
2018-06-21T06:40:20.500Z,36.74
2018-06-21T06:41:30.062Z,36.68
2018-06-21T06:42:40.137Z,36.55
2018-06-21T06:43:50.214Z,36.49
2018-06-21T06:45:00.056Z,36.32
2018-06-21T06:46:10.165Z,36.3
2018-06-21T06:47:20.393Z,36.15
2018-06-21T06:48:30.229Z,35.9
2018-06-21T06:49:40.314Z,35.86
2018-06-21T06:50:50.388Z,35.76
2018-06-21T06:52:00.478Z,35.65
2018-06-21T06:53:10.045Z,35.6
2018-06-21T06:54:20.196Z,35.46
2018-06-21T06:55:29.934Z,35.38
2018-06-21T06:56:40.020Z,35.31
2018-06-21T06:57:50.110Z,35.24
2018-06-21T06:59:00.253Z,35.06
2018-06-21T07:00:10.078Z,34.96
2018-06-21T07:01:20.175Z,34.89
2018-06-21T07:02:30.009Z,34.81
2018-06-21T07:03:40.093Z,34.64
2018-06-21T07:04:50.165Z,34.61
2018-06-21T07:05:59.988Z,34.58
2018-06-21T07:07:10.076Z,34.51
2018-06-21T07:08:20.153Z,34.51
2018-06-21T07:09:30.153Z,34.36
2018-06-21T07:10:40.298Z,34.37
2018-06-21T07:11:50.393Z,34.32
2018-06-21T07:13:00.467Z,34.19
2018-06-21T07:14:10.742Z,34.26
2018-06-21T07:15:21.069Z,34.14
2018-06-21T07:16:31.161Z,34.02
2018-06-21T07:17:40.993Z,33.9
2018-06-21T07:18:50.828Z,33.63
2018-06-21T07:20:00.901Z,33.56
2018-06-21T07:21:10.734Z,33.46
2018-06-21T07:22:20.861Z,33.36
2018-06-21T07:23:30.669Z,33.39
2018-06-21T07:24:40.750Z,33.32
2018-06-21T07:25:50.842Z,33.32
2018-06-21T07:27:00.716Z,33.37
2018-06-21T07:28:10.948Z,33.31
2018-06-21T07:29:21.032Z,33.26
2018-06-21T07:30:31.124Z,33.31
2018-06-21T07:31:41.241Z,33.21
2018-06-21T07:32:51.341Z,33.26
2018-06-21T07:34:01.468Z,33.24
2018-06-21T07:35:11.555Z,33.29
2018-06-21T07:36:21.404Z,33.24
2018-06-21T07:37:31.275Z,33.36
2018-06-21T07:38:41.387Z,33.36
2018-06-21T07:39:51.491Z,33.43
2018-06-21T07:41:01.313Z,33.4
2018-06-21T07:42:11.137Z,33.47
2018-06-21T07:43:20.953Z,33.44
2018-06-21T07:44:30.765Z,33.48
2018-06-21T07:45:40.845Z,33.47
2018-06-21T07:46:50.785Z,33.48
2018-06-21T07:48:01.048Z,33.58
2018-06-21T07:49:11.135Z,33.58
2018-06-21T07:50:20.980Z,33.61
2018-06-21T07:51:31.114Z,33.62
2018-06-21T07:52:41.197Z,33.71
2018-06-21T07:53:51.431Z,33.74
2018-06-21T07:55:02.061Z,33.75
2018-06-21T07:56:12.245Z,33.71
2018-06-21T07:57:22.090Z,33.85
2018-06-21T07:58:32.185Z,33.77
2018-06-21T07:59:42.292Z,33.95
2018-06-21T08:00:52.648Z,34
2018-06-21T08:02:02.499Z,33.93
2018-06-21T08:03:12.607Z,33.89
2018-06-21T08:04:22.709Z,33.9
2018-06-21T08:05:32.533Z,34.02
2018-06-21T08:06:42.650Z,34.06
2018-06-21T08:07:52.762Z,34.11
2018-06-21T08:09:03.322Z,34.08
2018-06-21T08:10:13.488Z,34.1
2018-06-21T08:11:23.616Z,34.1
2018-06-21T08:12:33.996Z,34.1
2018-06-21T08:13:44.102Z,34.1
2018-06-21T08:14:54.522Z,34.11
2018-06-21T08:16:04.610Z,34.03
2018-06-21T08:17:14.754Z,34.12
2018-06-21T08:18:24.910Z,34.08
2018-06-21T08:19:35.441Z,34.1
2018-06-21T08:20:45.701Z,34.12
2018-06-21T08:21:56.271Z,34.12
2018-06-21T08:23:06.407Z,34.19
2018-06-21T08:24:16.572Z,34.08
2018-06-21T08:25:26.488Z,34.08
2018-06-21T08:26:36.417Z,34.24
2018-06-21T08:27:47.516Z,34.19
2018-06-21T08:28:57.705Z,34.37
2018-06-21T08:30:07.879Z,34.3
2018-06-21T08:31:18.142Z,34.39
2018-06-21T08:32:28.241Z,34.52
2018-06-21T08:33:38.349Z,34.58
2018-06-21T08:34:48.449Z,34.69
2018-06-21T08:35:58.545Z,34.79
2018-06-21T08:37:09.383Z,34.93
2018-06-21T08:38:20.013Z,34.97
2018-06-21T08:39:30.679Z,35.09
2018-06-21T08:40:40.905Z,35.05
2018-06-21T08:41:51.226Z,35.06
2018-06-21T08:43:01.613Z,35.09
2018-06-21T08:44:11.410Z,35.02
2018-06-21T08:45:22.144Z,35.06
2018-06-21T08:46:32.531Z,35.16
2018-06-21T08:47:42.178Z,35.08
2018-06-21T08:48:52.865Z,35.05
2018-06-21T08:50:03.019Z,35.11
2018-06-21T08:51:13.463Z,35.21
2018-06-21T08:52:23.900Z,35.26
2018-06-21T08:53:34.098Z,35.26
2018-06-21T08:54:44.429Z,35.26
2018-06-21T08:55:54.911Z,35.38
2018-06-21T08:57:05.239Z,35.4
2018-06-21T08:58:15.801Z,35.24
2018-06-21T08:59:26.341Z,35.24
2018-06-21T09:00:36.574Z,35.18
2018-06-21T09:01:46.712Z,35.3
2018-06-21T09:02:56.792Z,35.28
2018-06-21T09:04:06.872Z,35.35
2018-06-21T09:05:16.969Z,35.35
2018-06-21T09:06:27.083Z,35.42
2018-06-21T09:07:37.173Z,35.4
2018-06-21T09:08:47.003Z,35.55
2018-06-21T09:09:57.100Z,35.61
2018-06-21T09:11:07.249Z,35.55
2018-06-21T09:12:17.081Z,35.55
2018-06-21T09:13:26.920Z,35.55
2018-06-21T09:14:36.877Z,35.57
2018-06-21T09:15:47.011Z,35.58
2018-06-21T09:16:57.145Z,35.68
2018-06-21T09:18:07.251Z,35.68
2018-06-21T09:19:17.338Z,35.64
2018-06-21T09:20:27.438Z,35.67
2018-06-21T09:21:37.577Z,35.74
2018-06-21T09:22:47.771Z,35.82
2018-06-21T09:23:57.872Z,35.94
2018-06-21T09:25:07.196Z,35.98
2018-06-21T09:26:17.022Z,36.17
2018-06-21T09:27:26.596Z,36.32
2018-06-21T09:28:36.756Z,36.28
2018-06-21T09:29:46.586Z,36.39
2018-06-21T09:30:56.674Z,36.49
2018-06-21T09:32:06.248Z,36.51
2018-06-21T09:33:16.448Z,36.55
2018-06-21T09:34:26.708Z,36.62
2018-06-21T09:35:36.797Z,36.7
2018-06-21T09:36:46.909Z,36.78
2018-06-21T09:37:57.012Z,36.74
2018-06-21T09:39:07.105Z,36.75
2018-06-21T09:40:17.252Z,36.74
2018-06-21T09:41:27.347Z,36.73
2018-06-21T09:42:37.429Z,36.65
2018-06-21T09:44:06.630Z,36.61
2018-06-21T09:45:16.740Z,36.77
2018-06-21T09:46:36.731Z,36.84
2018-06-21T09:47:46.851Z,36.97
2018-06-21T09:48:56.960Z,37.07
2018-06-21T09:50:06.808Z,37.12
2018-06-21T09:51:16.942Z,37.09
2018-06-21T09:52:26.825Z,37.18
2018-06-21T09:53:37.056Z,37.19
2018-06-21T09:54:47.153Z,37.27
2018-06-21T09:55:57.244Z,37.37
2018-06-21T09:57:06.804Z,37.45
2018-06-21T09:58:16.941Z,37.62
2018-06-21T09:59:27.052Z,37.83
2018-06-21T10:00:37.145Z,37.96
2018-06-21T10:01:47.236Z,38.22
2018-06-21T10:02:57.297Z,38.36
2018-06-21T10:04:07.130Z,38.49
2018-06-21T10:05:16.955Z,38.62
2018-06-21T10:06:27.046Z,38.62
2018-06-21T10:07:36.614Z,38.65
2018-06-21T10:08:46.706Z,38.64
2018-06-21T10:09:56.775Z,38.73
2018-06-21T10:11:06.597Z,38.81
2018-06-21T10:12:16.691Z,38.97
2018-06-21T10:13:26.801Z,39
2018-06-21T10:14:36.636Z,39.19
2018-06-21T10:15:46.605Z,39.37
2018-06-21T10:16:56.885Z,39.56
2018-06-21T10:18:07.008Z,39.69
2018-06-21T10:19:18.271Z,39.84
2018-06-21T10:20:28.593Z,39.99
2018-06-21T10:21:38.211Z,40.15
2018-06-21T10:22:48.311Z,40.25
2018-06-21T10:23:58.447Z,40.4
2018-06-21T10:25:08.275Z,40.5
2018-06-21T10:26:18.365Z,40.09
2018-06-21T10:27:28.472Z,39.69
2018-06-21T10:28:38.566Z,39.67
2018-06-21T10:29:48.647Z,39.35
2018-06-21T10:30:58.847Z,39.72
2018-06-21T10:32:08.950Z,39.86
2018-06-21T10:33:19.063Z,40.01
2018-06-21T10:34:28.904Z,40.05
2018-06-21T10:35:38.991Z,39.96
2018-06-21T10:36:49.090Z,39.67
2018-06-21T10:37:58.902Z,39.78
2018-06-21T10:39:08.753Z,39.96
2018-06-21T10:40:18.880Z,40.05
2018-06-21T10:41:28.840Z,40.13
2018-06-21T10:42:38.795Z,39.96
2018-06-21T10:43:48.974Z,39.86
2018-06-21T10:44:59.070Z,39.88
2018-06-21T10:46:09.156Z,39.76
2018-06-21T10:47:19.264Z,39.69
2018-06-21T10:48:29.356Z,39.6
2018-06-21T10:49:39.455Z,39.65
2018-06-21T10:50:49.548Z,39.5
2018-06-21T10:51:59.627Z,39.38
2018-06-21T10:53:09.718Z,39.03
2018-06-21T10:54:19.825Z,38.56
2018-06-21T10:55:29.945Z,38.36
2018-06-21T10:56:40.034Z,38.09
2018-06-21T10:57:50.129Z,38.44
2018-06-21T10:59:00.216Z,38.74
2018-06-21T11:00:10.351Z,39.22
2018-06-21T11:01:20.466Z,39.33
2018-06-21T11:02:30.296Z,39.33
2018-06-21T11:03:40.134Z,39.64
2018-06-21T11:04:50.245Z,40.22
2018-06-21T11:06:00.333Z,40.67
2018-06-21T11:07:10.169Z,40.84
2018-06-21T11:08:20.254Z,40.88
2018-06-21T11:09:30.076Z,40.78
2018-06-21T11:10:40.186Z,40.7
2018-06-21T11:11:50.258Z,40.62
2018-06-21T11:13:00.372Z,40.44
2018-06-21T11:14:10.459Z,40.2
2018-06-21T11:15:20.541Z,39.97
2018-06-21T11:16:30.656Z,40.3
2018-06-21T11:17:41.850Z,40.45
2018-06-21T11:18:51.940Z,40.65
2018-06-21T11:20:02.022Z,40.72
2018-06-21T11:21:12.124Z,40.52
2018-06-21T11:22:22.238Z,40.7
2018-06-21T11:23:32.315Z,40.96
2018-06-21T11:24:42.167Z,41.32
2018-06-21T11:25:52.285Z,41.04
2018-06-21T11:27:02.160Z,40.81
2018-06-21T11:28:12.155Z,40.63
2018-06-21T11:29:22.348Z,40.47
2018-06-21T11:30:32.438Z,40.74
2018-06-21T11:31:42.550Z,40.93
2018-06-21T11:32:52.634Z,41.06
2018-06-21T11:34:02.730Z,40.74
2018-06-21T11:35:12.561Z,40.66
2018-06-21T11:36:22.645Z,40.45
2018-06-21T11:37:32.747Z,40.09
2018-06-21T11:38:42.871Z,39.81
2018-06-21T11:39:52.699Z,39.68
2018-06-21T11:41:02.794Z,39.72
2018-06-21T11:42:12.894Z,39.88
2018-06-21T11:43:23.219Z,39.54
2018-06-21T11:44:33.309Z,39.35
2018-06-21T11:45:43.404Z,39.13
2018-06-21T11:46:53.484Z,38.97
2018-06-21T11:48:03.789Z,38.78
2018-06-21T11:49:13.909Z,38.71
2018-06-21T11:50:23.994Z,38.84
2018-06-21T11:51:34.078Z,39.04
2018-06-21T11:52:44.220Z,38.9
2018-06-21T11:53:54.035Z,38.97
2018-06-21T11:55:04.230Z,39.19
2018-06-21T11:56:14.324Z,39.41
2018-06-21T11:57:23.903Z,39.59
2018-06-21T11:58:33.474Z,39.68
2018-06-21T11:59:43.586Z,39.78
2018-06-21T12:00:53.428Z,39.79
2018-06-21T12:02:03.521Z,39.9
2018-06-21T12:03:13.674Z,39.93
2018-06-21T12:04:23.268Z,39.94
2018-06-21T12:05:33.100Z,39.88
2018-06-21T12:06:42.674Z,39.97
2018-06-21T12:07:52.777Z,40.06
2018-06-21T12:09:02.889Z,40.1
2018-06-21T12:10:12.989Z,40.22
2018-06-21T12:11:23.085Z,40.28
2018-06-21T12:12:33.175Z,40.47
2018-06-21T12:13:42.730Z,40.25
2018-06-21T12:14:52.829Z,40.31
2018-06-21T12:16:03.167Z,39.91
2018-06-21T12:17:13.271Z,39.81
2018-06-21T12:18:23.393Z,39.72
2018-06-21T12:19:33.495Z,39.83
2018-06-21T12:20:43.769Z,39.67
2018-06-21T12:21:54.032Z,39.16
2018-06-21T12:23:04.276Z,39.22
2018-06-21T12:24:14.106Z,39.11
2018-06-21T12:25:24.209Z,39.09
2018-06-21T12:26:34.319Z,39.13
2018-06-21T12:27:44.412Z,39.06
2018-06-21T12:28:54.513Z,38.97
2018-06-21T12:30:04.355Z,38.74
2018-06-21T12:31:14.454Z,38.76
2018-06-21T12:32:24.643Z,38.73
2018-06-21T12:33:34.767Z,38.61
2018-06-21T12:34:44.850Z,38.61
2018-06-21T12:35:54.930Z,38.64
2018-06-21T12:37:05.021Z,38.68
2018-06-21T12:38:15.233Z,38.58
2018-06-21T12:39:24.795Z,38.56
2018-06-21T12:40:34.895Z,38.55
2018-06-21T12:41:45.209Z,38.58
2018-06-21T12:42:55.320Z,38.55
2018-06-21T12:44:05.479Z,38.58
2018-06-21T12:45:15.599Z,38.59
2018-06-21T12:46:25.695Z,38.61
2018-06-21T12:47:36.248Z,38.56
2018-06-21T12:48:46.092Z,38.54
2018-06-21T12:49:56.206Z,38.56
2018-06-21T12:51:06.317Z,38.52
2018-06-21T12:52:15.916Z,38.46
2018-06-21T12:53:26.033Z,38.56
2018-06-21T12:54:36.134Z,38.49
2018-06-21T12:55:46.278Z,38.37
2018-06-21T12:56:56.416Z,38.5
2018-06-21T12:58:06.718Z,38.49
2018-06-21T12:59:16.606Z,38.61
2018-06-21T13:00:26.721Z,38.52
2018-06-21T13:01:36.544Z,38.56
2018-06-21T13:02:46.657Z,38.56
2018-06-21T13:03:56.753Z,38.56
2018-06-21T13:05:06.838Z,38.56
2018-06-21T13:06:16.935Z,38.2
2018-06-21T13:07:27.122Z,37.9
2018-06-21T13:08:37.220Z,37.61
2018-06-21T13:09:47.080Z,37.81
2018-06-21T13:10:56.918Z,38
2018-06-21T13:12:07.035Z,38.12
2018-06-21T13:13:17.125Z,38.17
2018-06-21T13:14:26.979Z,38.22
2018-06-21T13:15:37.256Z,38.24
2018-06-21T13:16:47.366Z,38.22
2018-06-21T13:17:57.205Z,38.21
2018-06-21T13:19:06.816Z,38.21
2018-06-21T13:20:16.636Z,38.28
2018-06-21T13:21:26.466Z,38.35
2018-06-21T13:22:36.316Z,38.46
2018-06-21T13:23:46.428Z,38.4
2018-06-21T13:24:56.500Z,38.37
2018-06-21T13:26:06.335Z,38.35
2018-06-21T13:27:16.435Z,38.22
2018-06-21T13:28:26.281Z,38.21
2018-06-21T13:29:36.408Z,38.22
2018-06-21T13:30:46.315Z,38.33
2018-06-21T13:31:56.411Z,38.35
2018-06-21T13:33:06.260Z,38.43
2018-06-21T13:34:16.347Z,38.3
2018-06-21T13:35:26.427Z,38.37
2018-06-21T13:36:36.702Z,38.36
2018-06-21T13:37:46.815Z,38.36
2018-06-21T13:38:56.683Z,38.28
2018-06-21T13:40:06.798Z,38.33
2018-06-21T13:41:16.888Z,38.37
2018-06-21T13:42:26.998Z,38.37
2018-06-21T13:43:37.099Z,38.46
2018-06-21T13:44:47.194Z,38.42
2018-06-21T13:45:57.292Z,38.47
2018-06-21T13:47:07.608Z,38.37
2018-06-21T13:48:17.997Z,38.37
2018-06-21T13:49:28.098Z,38.35
2018-06-21T13:50:38.204Z,38.35
2018-06-21T13:51:48.293Z,38.33
2018-06-21T13:52:58.394Z,38.3
2018-06-21T13:54:08.530Z,38.35
2018-06-21T13:55:18.632Z,38.22
2018-06-21T13:56:28.767Z,38.22
2018-06-21T13:57:38.853Z,38.37
2018-06-21T13:58:48.964Z,38.36
2018-06-21T13:59:58.783Z,38.43
2018-06-21T14:01:08.901Z,38.46
2018-06-21T14:02:18.473Z,38.47
2018-06-21T14:03:28.581Z,38.24
2018-06-21T14:04:38.676Z,38.05
2018-06-21T14:05:48.802Z,37.84
2018-06-21T14:06:58.904Z,37.83
2018-06-21T14:08:09.973Z,37.83
2018-06-21T14:09:20.433Z,37.81
2018-06-21T14:10:30.253Z,37.94
2018-06-21T14:11:40.351Z,37.96
2018-06-21T14:12:50.623Z,38.03
2018-06-21T14:14:00.530Z,38
2018-06-21T14:15:10.361Z,38
2018-06-21T14:16:20.477Z,37.86
2018-06-21T14:17:30.588Z,37.8
2018-06-21T14:18:40.707Z,37.87
2018-06-21T14:19:50.819Z,37.91
2018-06-21T14:21:01.044Z,37.81
2018-06-21T14:22:10.885Z,37.9
2018-06-21T14:23:20.788Z,38
2018-06-21T14:24:30.884Z,38.12
2018-06-21T14:25:41.068Z,38.27
2018-06-21T14:26:51.181Z,38.35
2018-06-21T14:28:01.014Z,38.43
2018-06-21T14:29:11.125Z,38.54
2018-06-21T14:30:20.706Z,38.68
2018-06-21T14:31:30.807Z,38.85
2018-06-21T14:32:40.639Z,38.89
2018-06-21T14:33:50.744Z,39.01
2018-06-21T14:35:00.627Z,39.13
2018-06-21T14:36:10.734Z,39.09
2018-06-21T14:37:20.840Z,39.08
2018-06-21T14:38:30.667Z,39.06
2018-06-21T14:39:40.750Z,39.08
2018-06-21T14:40:50.888Z,39.18
2018-06-21T14:42:00.736Z,39.11
2018-06-21T14:43:10.836Z,38.99
2018-06-21T14:44:20.932Z,38.87
2018-06-21T14:45:30.789Z,38.76
2018-06-21T14:46:41.051Z,38.58
2018-06-21T14:47:51.468Z,38.52
2018-06-21T14:49:02.173Z,38.35
2018-06-21T14:50:12.294Z,38.15
2018-06-21T14:51:22.394Z,37.98
2018-06-21T14:52:33.031Z,37.91
2018-06-21T14:53:43.422Z,37.8
2018-06-21T14:54:53.773Z,37.84
2018-06-21T14:56:03.900Z,37.75
2018-06-21T14:57:13.855Z,37.8
2018-06-21T14:58:24.069Z,37.71
2018-06-21T14:59:33.699Z,37.8
2018-06-21T15:00:43.793Z,37.83
2018-06-21T15:01:53.899Z,37.86
2018-06-21T15:03:04.005Z,37.9
2018-06-21T15:04:14.113Z,37.93
2018-06-21T15:05:23.988Z,37.96
2018-06-21T15:06:34.455Z,38
2018-06-21T15:07:44.566Z,37.87
2018-06-21T15:08:54.367Z,37.88
2018-06-21T15:10:03.943Z,37.88
2018-06-21T15:11:14.261Z,37.87
2018-06-21T15:12:23.937Z,37.93
2018-06-21T15:13:34.035Z,38.25
2018-06-21T15:14:44.150Z,38.24
2018-06-21T15:15:54.276Z,38.33
2018-06-21T15:17:04.384Z,38.44
2018-06-21T15:18:14.478Z,38.42
2018-06-21T15:19:24.804Z,38.43
2018-06-21T15:20:34.896Z,38.44
2018-06-21T15:21:44.737Z,38.52
2018-06-21T15:22:54.582Z,38.61
2018-06-21T15:24:04.711Z,38.7
2018-06-21T15:25:14.561Z,38.74
2018-06-21T15:26:24.681Z,38.71
2018-06-21T15:27:34.800Z,38.83
2018-06-21T15:28:44.925Z,38.74
2018-06-21T15:29:54.759Z,38.77
2018-06-21T15:31:04.876Z,38.74
2018-06-21T15:32:14.717Z,38.73
2018-06-21T15:33:24.865Z,38.71
2018-06-21T15:34:35.070Z,38.84
2018-06-21T15:35:45.480Z,38.87
2018-06-21T15:36:55.588Z,38.84
2018-06-21T15:38:05.185Z,38.85